Alpental, Washington
Current Conditions -  °F | °C
As of 3:53 AM on Friday 19 Dec 2014 (Local Time) from KRNT Reporting Station
Light Rain Light Rain  
Wind Chill: 47°   Ceiling: 3100
Heat Index: 47°   Visibility: 8mi
Dew Point: 46°   Wind: 0mph
Humidity: 97%   Direction: NA
Pressure: 29.83"   Gusts: NA
Location:  47.4076°N, 121.414°W
Report Text: KRNT 191153Z AUTO 00000KT 8SM -RA SCT010 BKN031 OVC036 08/08 A2983 RMK AO2 SLP105 P0001 60027 70050 T00830078 10094 20083 50005
Loading
Personal Weather Stations






























Interactive Weather Map New forecast layout! Learn more

10-Day Weather Forecast

Advertisements
Track Severe Weather on mobile